Time;durP1;ratioP1;P1;durP2;ratioP2;P2;SDS_P1;SDS_P2;PMS_P1;PMS_P2;Temp;Humidity;BMP_temperature;BMP_pressure;BME280_temperature;BME280_humidity;BME280_pressure;Samples;Min_cycle;Max_cycle;Signal;HPM_P1;HPM_P2
2022/04/15 00:00:07;;;;;;;10.75;7.93;;;;;;;;;;5113486;28;20024;-68
2022/04/15 00:02:33;;;;;;;15.77;8.18;;;;;;;;;;5113315;28;20019;-68
2022/04/15 00:05:00;;;;;;;10.13;8.05;;;;;;;;;;5112564;28;20032;-69
2022/04/15 00:07:27;;;;;;;14.18;8.57;;;;;;;;;;5112863;28;20035;-68
2022/04/15 00:09:53;;;;;;;11.82;8.40;;;;;;;;;;5111690;28;20019;-68
2022/04/15 00:12:28;;;;;;;13.93;9.15;;;;;;;;;;5108212;28;20069;-69
2022/04/15 00:14:55;;;;;;;11.00;8.35;;;;;;;;;;5107722;28;20096;-68
2022/04/15 00:17:22;;;;;;;9.80;8.23;;;;;;;;;;5108263;28;20023;-68
2022/04/15 00:19:49;;;;;;;15.77;9.30;;;;;;;;;;5107880;28;20110;-68
2022/04/15 00:22:15;;;;;;;15.80;9.07;;;;;;;;;;5109872;28;20092;-68
2022/04/15 00:24:42;;;;;;;16.30;9.55;;;;;;;;;;5112697;28;20051;-68
2022/04/15 00:27:09;;;;;;;12.43;8.50;;;;;;;;;;5112880;28;20023;-68
2022/04/15 00:29:37;;;;;;;14.98;8.88;;;;;;;;;;5112948;28;20376;-68
2022/04/15 00:32:03;;;;;;;14.18;9.25;;;;;;;;;;5112404;28;20027;-68
2022/04/15 00:34:31;;;;;;;10.70;8.00;;;;;;;;;;5111896;28;20024;-68
2022/04/15 00:36:58;;;;;;;13.98;9.38;;;;;;;;;;5107935;28;20110;-69
2022/04/15 00:39:25;;;;;;;18.13;10.05;;;;;;;;;;5107825;28;20123;-68
2022/04/15 00:41:51;;;;;;;12.30;10.98;;;;;;;;;;5107413;28;20023;-68
2022/04/15 00:44:18;;;;;;;11.10;8.20;;;;;;;;;;5107421;28;20020;-68
2022/04/15 00:46:45;;;;;;;21.23;8.95;;;;;;;;;;5108365;28;20529;-68
2022/04/15 00:49:11;;;;;;;12.73;9.10;;;;;;;;;;5112612;28;20055;-68
2022/04/15 00:51:39;;;;;;;11.80;8.52;;;;;;;;;;5112499;28;20483;-68
2022/04/15 00:54:06;;;;;;;13.23;9.32;;;;;;;;;;5111943;28;20370;-68
2022/04/15 00:56:36;;;;;;;11.73;8.27;;;;;;;;;;5112570;28;20020;-68
2022/04/15 00:59:04;;;;;;;14.70;9.20;;;;;;;;;;5112339;28;20024;-68
2022/04/15 01:01:31;;;;;;;12.30;9.53;;;;;;;;;;5107413;28;20016;-68
2022/04/15 01:03:58;;;;;;;12.95;9.20;;;;;;;;;;5107660;28;20024;-68
2022/04/15 01:06:30;;;;;;;12.97;9.43;;;;;;;;;;5106932;28;20090;-68
2022/04/15 01:08:58;;;;;;;10.50;8.07;;;;;;;;;;5107652;28;20035;-68
2022/04/15 01:11:27;;;;;;;11.07;8.10;;;;;;;;;;5107823;28;20016;-68
2022/04/15 01:13:54;;;;;;;9.30;7.43;;;;;;;;;;5111793;28;20024;-68
2022/04/15 01:16:21;;;;;;;10.53;7.87;;;;;;;;;;5112402;28;20103;-68
2022/04/15 01:18:48;;;;;;;11.07;8.57;;;;;;;;;;5111547;28;20040;-68
2022/04/15 01:21:15;;;;;;;13.23;8.57;;;;;;;;;;5110040;28;20506;-68
2022/04/15 01:23:42;;;;;;;13.40;8.90;;;;;;;;;;5110680;28;20027;-68
2022/04/15 01:26:08;;;;;;;13.20;8.37;;;;;;;;;;5106294;28;20024;-68
2022/04/15 01:28:35;;;;;;;10.87;8.50;;;;;;;;;;5106122;28;20028;-68
2022/04/15 01:31:02;;;;;;;11.17;9.30;;;;;;;;;;5105310;28;20046;-68
2022/04/15 01:33:28;;;;;;;13.13;9.70;;;;;;;;;;5105734;28;20024;-68
2022/04/15 01:35:55;;;;;;;11.77;9.67;;;;;;;;;;5106134;28;20496;-68
2022/04/15 01:38:22;;;;;;;11.80;8.97;;;;;;;;;;5110073;28;20027;-68
2022/04/15 01:40:49;;;;;;;11.23;8.73;;;;;;;;;;5110216;28;20020;-68
2022/04/15 01:43:16;;;;;;;13.57;8.87;;;;;;;;;;5110476;28;20054;-68
2022/04/15 01:45:43;;;;;;;10.47;8.90;;;;;;;;;;5110399;28;20100;-68
2022/04/15 01:48:09;;;;;;;21.00;10.13;;;;;;;;;;5110325;28;20024;-68
2022/04/15 01:50:36;;;;;;;11.23;7.30;;;;;;;;;;5106687;28;20026;-68
2022/04/15 01:53:03;;;;;;;11.13;8.87;;;;;;;;;;5105687;28;20238;-68
2022/04/15 01:55:30;;;;;;;13.50;9.17;;;;;;;;;;5105343;28;20031;-68
2022/04/15 01:57:57;;;;;;;11.33;8.83;;;;;;;;;;5105557;28;20027;-68
2022/04/15 02:00:24;;;;;;;11.27;7.63;;;;;;;;;;5109352;28;20028;-68
2022/04/15 02:02:50;;;;;;;10.43;7.77;;;;;;;;;;5112990;28;20031;-68
2022/04/15 02:05:17;;;;;;;17.23;8.13;;;;;;;;;;5114371;28;20028;-67
2022/04/15 02:07:44;;;;;;;12.00;8.73;;;;;;;;;;5113997;28;20019;-68
2022/04/15 02:10:11;;;;;;;12.50;8.80;;;;;;;;;;5115079;28;20051;-68
2022/04/15 02:12:38;;;;;;;11.93;9.63;;;;;;;;;;5115096;28;20111;-68
2022/04/15 02:15:05;;;;;;;17.73;10.27;;;;;;;;;;5112285;28;20034;-68
2022/04/15 02:17:32;;;;;;;14.40;9.97;;;;;;;;;;5109645;28;20157;-68
2022/04/15 02:19:58;;;;;;;17.63;11.37;;;;;;;;;;5110179;28;20032;-68
2022/04/15 02:22:25;;;;;;;14.40;9.37;;;;;;;;;;5110191;28;20132;-68
2022/04/15 02:24:52;;;;;;;16.80;10.17;;;;;;;;;;5109787;28;20058;-68
2022/04/15 02:27:18;;;;;;;14.00;10.50;;;;;;;;;;5112997;28;20026;-68
2022/04/15 02:29:45;;;;;;;20.77;10.60;;;;;;;;;;5115141;28;20413;-68
2022/04/15 02:32:12;;;;;;;11.03;9.63;;;;;;;;;;5114785;28;20088;-68
2022/04/15 02:34:38;;;;;;;13.50;10.43;;;;;;;;;;5114651;28;20105;-69
2022/04/15 02:37:05;;;;;;;14.33;10.20;;;;;;;;;;5114824;28;20106;-68
2022/04/15 02:39:35;;;;;;;19.10;10.70;;;;;;;;;;5113039;28;20028;-68
2022/04/15 02:42:02;;;;;;;15.10;10.33;;;;;;;;;;5109709;28;20432;-68
2022/04/15 02:44:29;;;;;;;17.00;10.77;;;;;;;;;;5110054;28;20370;-67
2022/04/15 02:46:58;;;;;;;14.77;10.27;;;;;;;;;;5109618;28;20031;-68
2022/04/15 02:49:26;;;;;;;14.23;9.83;;;;;;;;;;5109688;28;20019;-67
2022/04/15 02:51:53;;;;;;;15.53;10.57;;;;;;;;;;5111848;28;20031;-67
2022/04/15 02:54:20;;;;;;;13.23;9.70;;;;;;;;;;5113457;28;20043;-67
2022/04/15 02:56:46;;;;;;;14.50;9.87;;;;;;;;;;5114266;28;20085;-67
2022/04/15 02:59:13;;;;;;;13.47;8.60;;;;;;;;;;5114054;28;20028;-67
2022/04/15 03:01:40;;;;;;;14.83;9.10;;;;;;;;;;5114447;28;20057;-67
2022/04/15 03:04:06;;;;;;;12.90;9.70;;;;;;;;;;5113224;28;20198;-67
2022/04/15 03:06:33;;;;;;;14.37;9.20;;;;;;;;;;5109539;28;20023;-67
2022/04/15 03:09:00;;;;;;;13.63;10.30;;;;;;;;;;5109428;28;20062;-67
2022/04/15 03:11:26;;;;;;;13.03;9.67;;;;;;;;;;5109435;28;20073;-67
2022/04/15 03:13:53;;;;;;;15.50;10.03;;;;;;;;;;5109324;28;20110;-68
2022/04/15 03:16:20;;;;;;;14.87;10.37;;;;;;;;;;5110250;28;20024;-67
2022/04/15 03:18:46;;;;;;;13.60;10.27;;;;;;;;;;5114157;28;20509;-67
2022/04/15 03:21:13;;;;;;;12.77;9.67;;;;;;;;;;5114362;28;20011;-67
2022/04/15 03:23:42;;;;;;;14.23;10.90;;;;;;;;;;5114259;28;20065;-67
2022/04/15 03:26:08;;;;;;;22.33;10.97;;;;;;;;;;5114065;28;20027;-67
2022/04/15 03:28:37;;;;;;;15.73;11.03;;;;;;;;;;5113710;28;20016;-67
2022/04/15 03:31:05;;;;;;;16.67;10.27;;;;;;;;;;5108954;28;20035;-67
2022/04/15 03:33:32;;;;;;;14.47;10.23;;;;;;;;;;5108793;28;20358;-67
2022/04/15 03:35:59;;;;;;;17.93;11.07;;;;;;;;;;5108770;28;20027;-68
2022/04/15 03:38:26;;;;;;;15.23;11.10;;;;;;;;;;5108985;28;20485;-67
2022/04/15 03:40:53;;;;;;;12.00;9.80;;;;;;;;;;5108768;28;20031;-67
2022/04/15 03:43:19;;;;;;;13.33;9.50;;;;;;;;;;5113659;28;20023;-67
2022/04/15 03:45:46;;;;;;;13.70;8.90;;;;;;;;;;5113927;28;20028;-67
2022/04/15 03:48:13;;;;;;;10.57;8.50;;;;;;;;;;5113805;28;20579;-67
2022/04/15 03:50:39;;;;;;;12.87;9.87;;;;;;;;;;5113442;28;20023;-67
2022/04/15 03:53:06;;;;;;;14.60;10.43;;;;;;;;;;5112752;28;20055;-67
2022/04/15 03:55:33;;;;;;;14.97;10.23;;;;;;;;;;5109018;28;20024;-67
2022/04/15 03:57:59;;;;;;;18.33;10.83;;;;;;;;;;5108319;28;20023;-67
2022/04/15 04:00:26;;;;;;;15.23;11.43;;;;;;;;;;5107200;28;20047;-66
2022/04/15 04:02:54;;;;;;;12.43;9.37;;;;;;;;;;5107535;28;20141;-67
2022/04/15 04:05:22;;;;;;;12.23;9.07;;;;;;;;;;5107034;28;20030;-67
2022/04/15 04:07:48;;;;;;;18.33;8.83;;;;;;;;;;5112819;28;20028;-66
2022/04/15 04:10:15;;;;;;;16.27;10.63;;;;;;;;;;5113203;28;20028;-67
2022/04/15 04:12:44;;;;;;;15.00;10.37;;;;;;;;;;5113391;28;20024;-67
2022/04/15 04:15:12;;;;;;;12.50;9.80;;;;;;;;;;5112217;28;20055;-67
2022/04/15 04:17:39;;;;;;;13.43;9.13;;;;;;;;;;5112740;28;20553;-67
2022/04/15 04:20:07;;;;;;;13.77;9.60;;;;;;;;;;5109787;28;20026;-66
2022/04/15 04:22:35;;;;;;;13.33;9.83;;;;;;;;;;5107600;28;20034;-67
2022/04/15 04:25:02;;;;;;;12.57;9.50;;;;;;;;;;5107870;28;20024;-67
2022/04/15 04:27:30;;;;;;;12.47;8.77;;;;;;;;;;5107849;28;20031;-67
2022/04/15 04:29:57;;;;;;;12.53;10.53;;;;;;;;;;5108256;28;20129;-67
2022/04/15 04:32:23;;;;;;;14.43;10.60;;;;;;;;;;5112037;28;20063;-67
2022/04/15 04:34:50;;;;;;;15.27;11.10;;;;;;;;;;5111143;28;20035;-67
2022/04/15 04:37:17;;;;;;;12.63;10.23;;;;;;;;;;5111185;28;20023;-68
2022/04/15 04:39:43;;;;;;;11.90;10.20;;;;;;;;;;5112732;28;20033;-71
2022/04/15 04:42:10;;;;;;;17.67;11.27;;;;;;;;;;5112349;28;20362;-71
2022/04/15 04:44:38;;;;;;;15.77;10.77;;;;;;;;;;5109337;28;20070;-71
2022/04/15 04:47:07;;;;;;;14.20;11.87;;;;;;;;;;5107899;28;20063;-71
2022/04/15 04:49:33;;;;;;;13.50;10.87;;;;;;;;;;5108009;28;20043;-70
2022/04/15 04:52:00;;;;;;;13.77;10.43;;;;;;;;;;5107731;28;20052;-71
2022/04/15 04:54:28;;;;;;;13.33;10.97;;;;;;;;;;5107907;28;20386;-70
2022/04/15 04:56:54;;;;;;;14.73;10.13;;;;;;;;;;5110809;28;20482;-70
2022/04/15 04:59:29;;;;;;;14.10;10.63;;;;;;;;;;5111485;28;20012;-70
2022/04/15 05:01:55;;;;;;;;;;;;;;;;;;5112953;28;20635;-70
2022/04/15 05:04:22;;;;;;;12.53;9.60;;;;;;;;;;5112846;28;19904;-70
2022/04/15 05:06:49;;;;;;;11.77;9.43;;;;;;;;;;5112727;28;20047;-70
2022/04/15 05:09:18;;;;;;;10.53;8.70;;;;;;;;;;5109052;28;20024;-70
2022/04/15 05:11:45;;;;;;;11.17;7.70;;;;;;;;;;5107103;28;20031;-71
2022/04/15 05:14:12;;;;;;;14.60;9.17;;;;;;;;;;5106260;28;20041;-70
2022/04/15 05:16:38;;;;;;;13.20;9.93;;;;;;;;;;5106805;28;20028;-70
2022/04/15 05:19:05;;;;;;;18.63;10.53;;;;;;;;;;5109835;28;20054;-70
2022/04/15 05:21:32;;;;;;;12.27;10.03;;;;;;;;;;5112049;28;20385;-70
2022/04/15 05:23:58;;;;;;;13.17;9.73;;;;;;;;;;5112431;28;20027;-70
2022/04/15 05:26:25;;;;;;;14.97;9.87;;;;;;;;;;5106742;28;20047;-70
2022/04/15 05:28:52;;;;;;;15.47;11.37;;;;;;;;;;5111981;28;20055;-70
2022/04/15 05:31:18;;;;;;;13.43;10.20;;;;;;;;;;5099492;28;20031;-66
2022/04/15 05:36:49;;;;;;;13.33;9.00;;;;;;;;;;5091191;28;20031;-69
2022/04/15 05:39:15;;;;;;;13.27;9.87;;;;;;;;;;5091785;28;20028;-70
2022/04/15 05:41:42;;;;;;;11.87;9.40;;;;;;;;;;5101937;28;20422;-70
2022/04/15 05:44:12;;;;;;;11.67;10.20;;;;;;;;;;5109029;28;20051;-67
2022/04/15 05:46:42;;;;;;;13.10;9.70;;;;;;;;;;5114304;28;20023;-68
2022/04/15 05:49:13;;;;;;;14.53;11.07;;;;;;;;;;5095709;28;20027;-67
2022/04/15 05:51:43;;;;;;;13.23;10.33;;;;;;;;;;5113182;28;20058;-67
2022/04/15 05:54:10;;;;;;;16.30;11.90;;;;;;;;;;5107447;28;20028;-70
2022/04/15 05:56:58;;;;;;;16.53;10.57;;;;;;;;;;5112973;28;20024;-71
2022/04/15 05:59:25;;;;;;;16.60;11.27;;;;;;;;;;5111018;28;20112;-68
2022/04/15 06:01:52;;;;;;;12.97;10.30;;;;;;;;;;5111115;28;20015;-69
2022/04/15 06:04:19;;;;;;;15.87;10.50;;;;;;;;;;5110414;28;20036;-71
2022/04/15 06:06:47;;;;;;;21.47;11.37;;;;;;;;;;5110450;28;20470;-71
2022/04/15 06:09:14;;;;;;;14.10;9.70;;;;;;;;;;5115187;28;20379;-69
2022/04/15 06:11:41;;;;;;;17.70;10.73;;;;;;;;;;5115800;28;20030;-69
2022/04/15 06:14:08;;;;;;;14.47;10.40;;;;;;;;;;5115712;28;20094;-69
2022/04/15 06:16:37;;;;;;;14.03;11.67;;;;;;;;;;5115258;28;20024;-69
2022/04/15 06:19:08;;;;;;;15.67;12.17;;;;;;;;;;5115515;28;20374;-69
2022/04/15 06:21:35;;;;;;;16.73;11.23;;;;;;;;;;5112125;28;20526;-69
2022/04/15 06:24:01;;;;;;;14.93;10.97;;;;;;;;;;5109884;28;20031;-69
2022/04/15 06:26:28;;;;;;;16.13;11.53;;;;;;;;;;5109894;28;20042;-69
2022/04/15 06:28:55;;;;;;;15.67;10.53;;;;;;;;;;5109848;28;20023;-69
2022/04/15 06:31:21;;;;;;;17.13;11.20;;;;;;;;;;5110866;28;20024;-69
2022/04/15 06:33:50;;;;;;;15.10;10.97;;;;;;;;;;5114583;28;20028;-69
2022/04/15 06:36:16;;;;;;;15.90;11.90;;;;;;;;;;5115297;28;20028;-69
2022/04/15 06:38:43;;;;;;;13.60;11.17;;;;;;;;;;5115060;28;20024;-69
2022/04/15 06:41:10;;;;;;;17.77;11.40;;;;;;;;;;5114346;28;20106;-69
2022/04/15 06:46:40;;;;;;;14.03;10.17;;;;;;;;;;5106935;28;20035;-69
2022/04/15 06:49:08;;;;;;;11.50;9.70;;;;;;;;;;5109059;28;20050;-69
2022/04/15 06:51:35;;;;;;;16.17;10.37;;;;;;;;;;5109428;28;20028;-69
2022/04/15 06:54:02;;;;;;;11.57;9.70;;;;;;;;;;5111075;28;20489;-69
2022/04/15 06:56:28;;;;;;;14.93;10.93;;;;;;;;;;5115032;28;20502;-69
2022/04/15 06:58:55;;;;;;;13.67;10.50;;;;;;;;;;5113194;28;20130;-68
2022/04/15 07:01:24;;;;;;;15.37;11.67;;;;;;;;;;5114903;28;20091;-69
2022/04/15 07:03:51;;;;;;;15.57;11.90;;;;;;;;;;5114746;28;20023;-68
2022/04/15 07:06:18;;;;;;;18.20;11.50;;;;;;;;;;5112323;28;20020;-68
2022/04/15 07:08:44;;;;;;;13.87;9.63;;;;;;;;;;5108835;28;20032;-69
2022/04/15 07:11:11;;;;;;;15.83;11.53;;;;;;;;;;5109171;28;20043;-69
2022/04/15 07:13:37;;;;;;;14.60;10.53;;;;;;;;;;5109060;28;20097;-70
2022/04/15 07:16:04;;;;;;;12.70;9.87;;;;;;;;;;5109334;28;20026;-69
2022/04/15 07:18:31;;;;;;;15.50;11.23;;;;;;;;;;5114213;28;20020;-69
2022/04/15 07:20:58;;;;;;;16.13;12.07;;;;;;;;;;5114242;28;20028;-69
2022/04/15 07:23:24;;;;;;;14.70;13.10;;;;;;;;;;5114072;28;20466;-69
2022/04/15 07:25:51;;;;;;;19.33;14.03;;;;;;;;;;5114328;28;20102;-69
2022/04/15 07:28:18;;;;;;;18.27;13.50;;;;;;;;;;5113142;28;20020;-70
2022/04/15 07:30:44;;;;;;;17.37;11.33;;;;;;;;;;5108335;28;20027;-69
2022/04/15 07:33:11;;;;;;;10.80;9.20;;;;;;;;;;5108507;28;20032;-70
2022/04/15 07:35:38;;;;;;;17.23;12.40;;;;;;;;;;5108566;28;20031;-69
2022/04/15 07:38:04;;;;;;;18.10;12.20;;;;;;;;;;5108504;28;20030;-69
2022/04/15 07:40:31;;;;;;;14.47;10.57;;;;;;;;;;5113170;28;20032;-69
2022/04/15 07:42:58;;;;;;;12.53;9.90;;;;;;;;;;5113955;28;20136;-69
2022/04/15 07:45:25;;;;;;;12.43;10.43;;;;;;;;;;5113867;28;20032;-69
2022/04/15 07:47:52;;;;;;;15.73;13.13;;;;;;;;;;5113535;28;20040;-69
2022/04/15 07:50:24;;;;;;;14.77;10.33;;;;;;;;;;5111778;28;20095;-69
2022/04/15 07:52:56;;;;;;;17.17;13.40;;;;;;;;;;5101181;28;20459;-69
2022/04/15 07:55:23;;;;;;;18.83;14.67;;;;;;;;;;5107497;28;20032;-68
2022/04/15 07:57:50;;;;;;;14.33;11.43;;;;;;;;;;5106898;28;20037;-70
2022/04/15 08:00:17;;;;;;;13.77;10.40;;;;;;;;;;5107969;28;20157;-69
2022/04/15 08:02:43;;;;;;;12.80;9.97;;;;;;;;;;5112633;28;20027;-70
2022/04/15 08:05:10;;;;;;;18.73;9.67;;;;;;;;;;5113720;28;20108;-69
2022/04/15 08:07:37;;;;;;;11.27;9.73;;;;;;;;;;5112729;28;20118;-70
2022/04/15 08:10:05;;;;;;;13.27;9.50;;;;;;;;;;5113317;28;20055;-70
2022/04/15 08:12:32;;;;;;;19.00;14.27;;;;;;;;;;5113077;28;20020;-69
2022/04/15 08:14:59;;;;;;;15.20;13.07;;;;;;;;;;5108138;28;20059;-69
2022/04/15 08:17:25;;;;;;;18.20;12.60;;;;;;;;;;5107652;28;20092;-69
2022/04/15 08:19:52;;;;;;;18.47;14.63;;;;;;;;;;5107707;28;20023;-69
2022/04/15 08:22:19;;;;;;;17.23;13.63;;;;;;;;;;5107444;28;20334;-70
2022/04/15 08:27:49;;;;;;;14.50;10.37;;;;;;;;;;5112742;28;20035;-70
2022/04/15 08:30:16;;;;;;;15.40;11.43;;;;;;;;;;5113029;28;20108;-68
2022/04/15 08:32:43;;;;;;;13.30;9.80;;;;;;;;;;5113071;28;20024;-69
2022/04/15 08:35:14;;;;;;;12.57;10.23;;;;;;;;;;5112828;28;20028;-70
2022/04/15 08:37:41;;;;;;;15.23;10.90;;;;;;;;;;5107084;28;20039;-70
2022/04/15 08:40:08;;;;;;;13.50;11.03;;;;;;;;;;5107382;28;20036;-68
2022/04/15 08:42:35;;;;;;;14.73;11.43;;;;;;;;;;5107512;28;20224;-68
2022/04/15 08:45:02;;;;;;;13.57;11.63;;;;;;;;;;5107260;28;20468;-70
2022/04/15 08:47:30;;;;;;;16.40;12.07;;;;;;;;;;5111646;28;20111;-70
2022/04/15 08:49:57;;;;;;;14.60;10.93;;;;;;;;;;5112966;28;20031;-68
2022/04/15 08:52:37;;;;;;;15.73;11.93;;;;;;;;;;5112278;28;20030;-69
2022/04/15 08:55:04;;;;;;;16.60;11.97;;;;;;;;;;5111927;28;20482;-68
2022/04/15 08:57:31;;;;;;;18.03;10.80;;;;;;;;;;5112683;28;20031;-68
2022/04/15 08:59:58;;;;;;;15.57;11.40;;;;;;;;;;5107373;28;20458;-68
2022/04/15 09:02:38;;;;;;;13.30;10.83;;;;;;;;;;5106353;28;20047;-68
2022/04/15 09:05:05;;;;;;;12.97;10.83;;;;;;;;;;5106099;28;20089;-69
2022/04/15 09:07:33;;;;;;;12.20;9.27;;;;;;;;;;5106205;28;20023;-69
2022/04/15 09:10:01;;;;;;;16.07;11.07;;;;;;;;;;5107116;28;20102;-69
2022/04/15 09:12:29;;;;;;;18.40;13.00;;;;;;;;;;5112542;28;20023;-69
2022/04/15 09:15:02;;;;;;;21.13;12.40;;;;;;;;;;5112088;28;20088;-69
2022/04/15 09:17:29;;;;;;;13.37;10.57;;;;;;;;;;5112202;28;20024;-69
2022/04/15 09:19:59;;;;;;;14.63;10.10;;;;;;;;;;5112599;28;20099;-69
2022/04/15 09:22:26;;;;;;;19.33;12.30;;;;;;;;;;5111402;28;20031;-69
2022/04/15 09:24:53;;;;;;;20.27;12.90;;;;;;;;;;5106509;28;20352;-69
2022/04/15 09:27:26;;;;;;;14.37;11.23;;;;;;;;;;5106952;28;20031;-68
2022/04/15 09:29:54;;;;;;;15.70;12.17;;;;;;;;;;5106894;28;20081;-69
2022/04/15 09:32:22;;;;;;;13.83;12.33;;;;;;;;;;5106164;28;20023;-68
2022/04/15 09:34:55;;;;;;;15.10;11.40;;;;;;;;;;5112450;28;20036;-70
2022/04/15 09:37:23;;;;;;;11.90;10.03;;;;;;;;;;5112323;28;20073;-70
2022/04/15 09:40:06;;;;;;;12.13;9.90;;;;;;;;;;5112171;28;20032;-70
2022/04/15 09:42:36;;;;;;;14.27;11.40;;;;;;;;;;5111796;28;20054;-71
2022/04/15 09:45:17;;;;;;;15.33;12.20;;;;;;;;;;5110402;28;20031;-71
2022/04/15 09:47:44;;;;;;;16.03;11.83;;;;;;;;;;5106751;28;20024;-71
2022/04/15 09:50:25;;;;;;;15.37;11.17;;;;;;;;;;5106365;28;20027;-67
2022/04/15 09:52:52;;;;;;;14.60;10.93;;;;;;;;;;5097650;28;20115;-71
2022/04/15 09:55:26;;;;;;;15.83;11.93;;;;;;;;;;5087164;28;20043;-69
2022/04/15 09:57:52;;;;;;;16.67;10.83;;;;;;;;;;5072742;28;20494;-69
2022/04/15 10:00:20;;;;;;;14.10;11.37;;;;;;;;;;5093037;28;20269;-68
2022/04/15 10:02:49;;;;;;;15.67;11.10;;;;;;;;;;5111414;28;20023;-69
2022/04/15 10:05:16;;;;;;;14.03;10.83;;;;;;;;;;5111723;28;20024;-69
2022/04/15 10:07:43;;;;;;;15.20;10.77;;;;;;;;;;5109844;28;20016;-69
2022/04/15 10:10:11;;;;;;;17.53;10.87;;;;;;;;;;5105702;28;20062;-68
2022/04/15 10:12:39;;;;;;;15.87;11.13;;;;;;;;;;5106164;28;20030;-70
2022/04/15 10:15:07;;;;;;;14.07;11.00;;;;;;;;;;5105968;28;20032;-70
2022/04/15 10:17:34;;;;;;;17.90;10.97;;;;;;;;;;5106381;28;20015;-69
2022/04/15 10:20:01;;;;;;;14.70;10.63;;;;;;;;;;5112547;28;20023;-69
2022/04/15 10:22:28;;;;;;;17.20;10.50;;;;;;;;;;5114340;28;20077;-67
2022/04/15 10:24:55;;;;;;;13.90;9.97;;;;;;;;;;5114613;28;20080;-67
2022/04/15 10:27:30;;;;;;;16.00;10.83;;;;;;;;;;5114556;28;20027;-67
2022/04/15 10:30:05;;;;;;;13.30;9.83;;;;;;;;;;5113622;28;20100;-70
2022/04/15 10:32:48;;;;;;;21.27;11.02;;;;;;;;;;5089281;28;20450;-69
2022/04/15 10:35:25;;;;;;;11.47;8.93;;;;;;;;;;5108894;28;20028;-69
2022/04/15 10:38:03;;;;;;;15.60;11.17;;;;;;;;;;5103697;28;20030;-67
2022/04/15 10:40:30;;;;;;;14.83;11.57;;;;;;;;;;5097494;28;20853;-67
2022/04/15 10:43:15;;;;;;;11.23;9.47;;;;;;;;;;5103206;28;20063;-68
2022/04/15 10:45:42;;;;;;;12.60;8.93;;;;;;;;;;5105114;28;20115;-70
2022/04/15 10:48:09;;;;;;;10.40;8.57;;;;;;;;;;5103329;28;20028;-70
2022/04/15 10:50:36;;;;;;;11.50;8.87;;;;;;;;;;5102997;28;20055;-68
2022/04/15 10:53:22;;;;;;;11.17;9.03;;;;;;;;;;5103655;28;20051;-69
2022/04/15 10:55:52;;;;;;;18.67;11.20;;;;;;;;;;5098934;28;20496;-70
2022/04/15 10:58:19;;;;;;;13.50;8.67;;;;;;;;;;5104452;28;20031;-69
2022/04/15 11:03:32;;;;;;;12.23;9.43;;;;;;;;;;5108558;28;20122;-71
2022/04/15 11:06:00;;;;;;;13.20;9.03;;;;;;;;;;5113855;28;20026;-69
2022/04/15 11:08:27;;;;;;;10.90;8.93;;;;;;;;;;5101521;28;20127;-69
2022/04/15 11:11:12;;;;;;;11.73;9.60;;;;;;;;;;5093664;28;20036;-68
2022/04/15 11:13:43;;;;;;;12.55;9.55;;;;;;;;;;5095614;28;20031;-68
2022/04/15 11:16:14;;;;;;;11.07;8.17;;;;;;;;;;5112366;28;20092;-68
2022/04/15 11:18:50;;;;;;;12.37;9.10;;;;;;;;;;5108566;28;20505;-70
2022/04/15 11:21:17;;;;;;;19.33;10.43;;;;;;;;;;5108999;28;20363;-70
2022/04/15 11:23:48;;;;;;;13.83;10.17;;;;;;;;;;5108305;28;20015;-70
2022/04/15 11:26:16;;;;;;;19.17;10.60;;;;;;;;;;5109145;28;20020;-70
2022/04/15 11:28:46;;;;;;;20.47;12.40;;;;;;;;;;5113133;28;20032;-69
2022/04/15 11:31:38;;;;;;;18.73;12.17;;;;;;;;;;5112441;28;20031;-68
2022/04/15 11:34:17;;;;;;;17.03;11.20;;;;;;;;;;5109297;28;20050;-68
2022/04/15 11:36:48;;;;;;;13.47;9.70;;;;;;;;;;5111722;28;20399;-68
2022/04/15 11:39:16;;;;;;;12.80;9.13;;;;;;;;;;5111243;28;20494;-68
2022/04/15 11:41:46;;;;;;;18.30;10.97;;;;;;;;;;5107572;28;20063;-69
2022/04/15 11:44:14;;;;;;;13.73;11.27;;;;;;;;;;5107124;28;20027;-69
2022/04/15 11:46:42;;;;;;;13.80;10.50;;;;;;;;;;5107268;28;20080;-69
2022/04/15 11:49:27;;;;;;;20.40;14.07;;;;;;;;;;5107476;28;20077;-70
2022/04/15 11:51:55;;;;;;;17.03;13.07;;;;;;;;;;5112253;28;20019;-69
2022/04/15 11:54:22;;;;;;;15.33;11.47;;;;;;;;;;5111808;28;20106;-68
2022/04/15 11:56:54;;;;;;;16.50;10.67;;;;;;;;;;5103509;28;20063;-69
2022/04/15 11:59:21;;;;;;;11.73;9.03;;;;;;;;;;5101647;28;20071;-69
2022/04/15 12:01:47;;;;;;;11.60;9.07;;;;;;;;;;5098085;28;20024;-68
2022/04/15 12:04:14;;;;;;;14.60;10.77;;;;;;;;;;5095699;28;20026;-68
2022/04/15 12:06:41;;;;;;;15.87;11.47;;;;;;;;;;5096613;28;20070;-71
2022/04/15 12:09:09;;;;;;;19.30;14.33;;;;;;;;;;5101842;28;20016;-70
2022/04/15 12:11:37;;;;;;;20.97;14.07;;;;;;;;;;5095286;28;20028;-70
2022/04/15 12:14:06;;;;;;;23.10;17.30;;;;;;;;;;5099975;28;20024;-70
2022/04/15 12:16:33;;;;;;;16.27;12.20;;;;;;;;;;5112879;28;20032;-68
2022/04/15 12:19:01;;;;;;;16.07;11.73;;;;;;;;;;5112209;28;20379;-67
2022/04/15 12:21:29;;;;;;;20.10;14.73;;;;;;;;;;5112482;28;20019;-67
2022/04/15 12:24:09;;;;;;;14.67;11.03;;;;;;;;;;5111361;28;20541;-67
2022/04/15 12:26:48;;;;;;;19.40;13.60;;;;;;;;;;5107595;28;20031;-67
2022/04/15 12:32:22;;;;;;;19.60;11.83;;;;;;;;;;5107477;28;20112;-71
2022/04/15 12:34:49;;;;;;;18.40;13.70;;;;;;;;;;5109990;28;20023;-70
2022/04/15 12:37:35;;;;;;;20.53;13.53;;;;;;;;;;5112761;28;20437;-71
2022/04/15 12:40:29;;;;;;;15.53;11.83;;;;;;;;;;5112526;28;20466;-68
2022/04/15 12:42:56;;;;;;;15.80;11.17;;;;;;;;;;5091207;28;20032;-68
2022/04/15 12:45:23;;;;;;;15.87;12.07;;;;;;;;;;5092264;28;20482;-70
2022/04/15 12:48:03;;;;;;;16.07;12.37;;;;;;;;;;5087841;28;20058;-70
2022/04/15 12:50:33;;;;;;;18.67;12.23;;;;;;;;;;5101039;28;20023;-69
2022/04/15 12:53:01;;;;;;;17.97;14.20;;;;;;;;;;5107206;28;20030;-69
2022/04/15 12:55:31;;;;;;;15.77;12.80;;;;;;;;;;5106722;28;20042;-70
2022/04/15 12:58:05;;;;;;;16.83;12.83;;;;;;;;;;5111131;28;20119;-70
2022/04/15 13:00:33;;;;;;;16.27;12.40;;;;;;;;;;5111950;28;20164;-69
2022/04/15 13:03:00;;;;;;;14.00;10.90;;;;;;;;;;5111550;28;20072;-70
2022/04/15 13:05:26;;;;;;;15.23;11.53;;;;;;;;;;5112656;28;20082;-71
2022/04/15 13:07:54;;;;;;;16.27;11.43;;;;;;;;;;5112058;28;20020;-71
2022/04/15 13:10:24;;;;;;;16.13;11.93;;;;;;;;;;5107518;28;20023;-71
2022/04/15 13:12:51;;;;;;;15.60;11.07;;;;;;;;;;5107216;28;20027;-70
2022/04/15 13:15:18;;;;;;;18.50;13.43;;;;;;;;;;5106899;28;20027;-69
2022/04/15 13:17:45;;;;;;;21.30;15.70;;;;;;;;;;5107227;28;20102;-70
2022/04/15 13:20:12;;;;;;;23.47;15.70;;;;;;;;;;5111059;28;20031;-69
2022/04/15 13:22:40;;;;;;;18.67;14.50;;;;;;;;;;5111919;28;20492;-70
2022/04/15 13:25:11;;;;;;;19.90;13.93;;;;;;;;;;5111610;28;20385;-70
2022/04/15 13:27:40;;;;;;;12.93;10.87;;;;;;;;;;5112183;28;20609;-70
2022/04/15 13:30:09;;;;;;;14.37;11.67;;;;;;;;;;5112188;28;20028;-71
2022/04/15 13:32:36;;;;;;;17.00;13.30;;;;;;;;;;5107413;28;20032;-71
2022/04/15 13:35:02;;;;;;;20.40;15.43;;;;;;;;;;5106589;28;20035;-70
2022/04/15 13:37:29;;;;;;;20.20;15.30;;;;;;;;;;5106537;28;20039;-68
2022/04/15 13:39:56;;;;;;;19.63;14.17;;;;;;;;;;5106333;28;20445;-69
2022/04/15 13:42:23;;;;;;;20.27;13.97;;;;;;;;;;5110441;28;20073;-69
2022/04/15 13:44:49;;;;;;;21.70;14.37;;;;;;;;;;5112063;28;20024;-69
2022/04/15 13:47:16;;;;;;;17.10;13.27;;;;;;;;;;5111983;28;20023;-71
2022/04/15 13:49:48;;;;;;;16.77;13.17;;;;;;;;;;5110980;28;20042;-70
2022/04/15 13:57:48;;;;;;;16.92;14.02;;;;;;;;;;5098755;28;20097;-71
2022/04/15 14:00:16;;;;;;;16.07;13.63;;;;;;;;;;5100958;28;20031;-69
2022/04/15 14:02:45;;;;;;;18.23;12.53;;;;;;;;;;5098594;28;20514;-70
2022/04/15 14:05:12;;;;;;;15.87;12.67;;;;;;;;;;5103737;28;20024;-70
2022/04/15 14:07:39;;;;;;;15.33;12.20;;;;;;;;;;5103124;28;20036;-70
2022/04/15 14:10:17;;;;;;;15.43;11.97;;;;;;;;;;5104177;28;20069;-70
2022/04/15 14:12:44;;;;;;;16.37;12.77;;;;;;;;;;5098929;28;20390;-70
2022/04/15 14:15:11;;;;;;;15.27;12.30;;;;;;;;;;5106371;28;20028;-70
2022/04/15 14:17:40;;;;;;;20.07;14.17;;;;;;;;;;5104506;28;20024;-70
2022/04/15 14:20:08;;;;;;;16.13;12.60;;;;;;;;;;5103664;28;20386;-70
2022/04/15 14:22:39;;;;;;;16.03;10.77;;;;;;;;;;5094695;28;20025;-70
2022/04/15 14:25:06;;;;;;;15.97;11.73;;;;;;;;;;5106900;28;20134;-70
2022/04/15 14:27:33;;;;;;;17.90;15.50;;;;;;;;;;5112719;28;20402;-69
2022/04/15 14:29:59;;;;;;;22.43;15.40;;;;;;;;;;5114633;28;20024;-70
2022/04/15 14:32:26;;;;;;;16.40;12.73;;;;;;;;;;5114197;28;20102;-70
2022/04/15 14:34:54;;;;;;;19.03;14.20;;;;;;;;;;5108424;28;20027;-70
2022/04/15 14:37:21;;;;;;;15.87;13.47;;;;;;;;;;5111071;28;20079;-70
2022/04/15 14:39:48;;;;;;;16.20;12.73;;;;;;;;;;5111298;28;20058;-70
2022/04/15 14:42:17;;;;;;;17.77;14.07;;;;;;;;;;5109012;28;20031;-70
2022/04/15 14:44:44;;;;;;;19.80;13.87;;;;;;;;;;5101993;28;20024;-70
2022/04/15 14:47:12;;;;;;;16.33;10.97;;;;;;;;;;5088618;28;20028;-70